createdAt,value
2018-05-29T00:00:15.772Z,1009.27
2018-05-29T00:00:41.935Z,1009.27
2018-05-29T00:01:08.083Z,1009.25
2018-05-29T00:01:34.219Z,1009.26
2018-05-29T00:02:00.365Z,1009.24
2018-05-29T00:02:26.509Z,1009.23
2018-05-29T00:02:52.652Z,1009.24
2018-05-29T00:03:18.794Z,1009.23
2018-05-29T00:03:44.930Z,1009.2
2018-05-29T00:04:11.075Z,1009.2
2018-05-29T00:04:37.215Z,1009.2
2018-05-29T00:05:03.358Z,1009.2
2018-05-29T00:05:29.499Z,1009.19
2018-05-29T00:05:55.645Z,1009.19
2018-05-29T00:06:21.788Z,1009.18
2018-05-29T00:06:47.933Z,1009.15
2018-05-29T00:07:14.071Z,1009.17
2018-05-29T00:07:40.271Z,1009.14
2018-05-29T00:08:06.412Z,1009.17
2018-05-29T00:08:32.548Z,1009.13
2018-05-29T00:08:58.699Z,1009.13
2018-05-29T00:09:24.836Z,1009.15
2018-05-29T00:09:51.000Z,1009.15
2018-05-29T00:10:17.239Z,1009.12
2018-05-29T00:10:43.432Z,1009.09
2018-05-29T00:11:09.533Z,1009.08
2018-05-29T00:11:35.698Z,1009.07
2018-05-29T00:12:01.845Z,1009.07
2018-05-29T00:12:28.009Z,1009.07
2018-05-29T00:12:54.151Z,1009.04
2018-05-29T00:13:20.286Z,1009.06
2018-05-29T00:13:46.426Z,1009.06
2018-05-29T00:14:12.573Z,1009.08
2018-05-29T00:14:38.758Z,1009.07
2018-05-29T00:15:04.869Z,1009.05
2018-05-29T00:15:31.012Z,1009.06
2018-05-29T00:15:57.176Z,1009.05
2018-05-29T00:16:23.391Z,1009.06
2018-05-29T00:16:49.503Z,1009.07
2018-05-29T00:17:15.655Z,1009.03
2018-05-29T00:17:41.812Z,1009.04
2018-05-29T00:18:07.951Z,1009.06
2018-05-29T00:18:34.136Z,1009.04
2018-05-29T00:19:00.318Z,1009.01
2018-05-29T00:19:26.452Z,1009
2018-05-29T00:19:52.604Z,1009.01
2018-05-29T00:20:18.761Z,1008.96
2018-05-29T00:20:44.901Z,1008.98
2018-05-29T00:21:11.071Z,1009
2018-05-29T00:21:37.234Z,1008.96
2018-05-29T00:22:03.626Z,1008.98
2018-05-29T00:22:29.801Z,1008.92
2018-05-29T00:22:56.039Z,1008.97
2018-05-29T00:23:22.170Z,1008.95
2018-05-29T00:23:48.454Z,1008.95
2018-05-29T00:24:14.604Z,1008.94
2018-05-29T00:24:40.789Z,1008.91
2018-05-29T00:25:06.940Z,1008.94
2018-05-29T00:25:33.098Z,1008.92
2018-05-29T00:25:59.243Z,1008.92
2018-05-29T00:26:25.426Z,1008.93
2018-05-29T00:26:51.587Z,1008.93
2018-05-29T00:27:17.737Z,1008.92
2018-05-29T00:27:43.970Z,1008.92
2018-05-29T00:28:10.130Z,1008.91
2018-05-29T00:28:36.267Z,1008.9
2018-05-29T00:29:02.414Z,1008.87
2018-05-29T00:29:28.586Z,1008.92
2018-05-29T00:29:54.731Z,1008.89
2018-05-29T00:30:20.891Z,1008.93
2018-05-29T00:30:47.058Z,1008.91
2018-05-29T00:31:13.274Z,1008.88
2018-05-29T00:31:39.436Z,1008.93
2018-05-29T00:32:05.606Z,1008.87
2018-05-29T00:32:31.802Z,1008.87
2018-05-29T00:32:57.927Z,1008.88
2018-05-29T00:33:24.098Z,1008.88
2018-05-29T00:33:50.261Z,1008.83
2018-05-29T00:34:16.420Z,1008.88
2018-05-29T00:34:42.558Z,1008.85
2018-05-29T00:35:08.706Z,1008.85
2018-05-29T00:35:34.839Z,1008.87
2018-05-29T00:36:00.988Z,1008.88
2018-05-29T00:36:27.123Z,1008.86
2018-05-29T00:36:53.270Z,1008.9
2018-05-29T00:37:19.406Z,1008.86
2018-05-29T00:37:45.546Z,1008.89
2018-05-29T00:38:11.723Z,1008.91
2018-05-29T00:38:37.854Z,1008.87
2018-05-29T00:39:04.004Z,1008.9
2018-05-29T00:39:30.181Z,1008.9
2018-05-29T00:39:56.327Z,1008.89
2018-05-29T00:40:22.468Z,1008.88
2018-05-29T00:40:48.626Z,1008.86
2018-05-29T00:41:14.766Z,1008.87
2018-05-29T00:41:40.938Z,1008.9
2018-05-29T00:42:07.077Z,1008.87
2018-05-29T00:42:33.265Z,1008.88
2018-05-29T00:42:59.403Z,1008.88
2018-05-29T00:43:25.575Z,1008.87
2018-05-29T00:43:51.712Z,1008.86
2018-05-29T00:44:17.855Z,1008.9
2018-05-29T00:44:44.019Z,1008.86
2018-05-29T00:45:10.162Z,1008.86
2018-05-29T00:45:36.327Z,1008.89
2018-05-29T00:46:02.469Z,1008.87
2018-05-29T00:46:28.610Z,1008.83
2018-05-29T00:46:54.775Z,1008.88
2018-05-29T00:47:20.964Z,1008.86
2018-05-29T00:47:47.105Z,1008.85
2018-05-29T00:48:13.244Z,1008.89
2018-05-29T00:48:39.383Z,1008.88
2018-05-29T00:49:05.546Z,1008.87
2018-05-29T00:49:31.688Z,1008.86
2018-05-29T00:49:59.690Z,1008.87
2018-05-29T00:50:27.121Z,1008.83
2018-05-29T00:50:53.314Z,1008.86
2018-05-29T00:51:19.486Z,1008.85
2018-05-29T00:51:45.635Z,1008.81
2018-05-29T00:52:11.797Z,1008.84
2018-05-29T00:52:37.938Z,1008.85
2018-05-29T00:53:04.082Z,1008.86
2018-05-29T00:53:30.220Z,1008.83
2018-05-29T00:53:56.358Z,1008.83
2018-05-29T00:54:22.498Z,1008.86
2018-05-29T00:54:48.661Z,1008.85
2018-05-29T00:55:14.791Z,1008.86
2018-05-29T00:55:40.934Z,1008.87
2018-05-29T00:56:07.118Z,1008.88
2018-05-29T00:56:33.262Z,1008.89
2018-05-29T00:56:59.431Z,1008.88
2018-05-29T00:57:25.572Z,1008.91
2018-05-29T00:57:51.720Z,1008.88
2018-05-29T00:58:17.864Z,1008.87
2018-05-29T00:58:44.002Z,1008.84
2018-05-29T00:59:10.143Z,1008.85
2018-05-29T00:59:36.305Z,1008.87
2018-05-29T01:00:02.445Z,1008.86
2018-05-29T01:00:28.593Z,1008.86
2018-05-29T01:00:54.727Z,1008.89
2018-05-29T01:01:20.865Z,1008.88
2018-05-29T01:01:47.037Z,1008.87
2018-05-29T01:02:13.207Z,1008.87
2018-05-29T01:02:39.382Z,1008.84
2018-05-29T01:03:05.546Z,1008.82
2018-05-29T01:03:31.721Z,1008.87
2018-05-29T01:03:57.888Z,1008.85
2018-05-29T01:04:24.059Z,1008.88
2018-05-29T01:04:50.198Z,1008.87
2018-05-29T01:05:16.344Z,1008.89
2018-05-29T01:05:42.492Z,1008.86
2018-05-29T01:06:08.653Z,1008.88
2018-05-29T01:06:34.797Z,1008.89
2018-05-29T01:07:00.933Z,1008.88
2018-05-29T01:07:27.082Z,1008.86
2018-05-29T01:07:53.228Z,1008.9
2018-05-29T01:08:19.367Z,1008.87
2018-05-29T01:08:45.515Z,1008.9
2018-05-29T01:09:11.646Z,1008.89
2018-05-29T01:09:37.792Z,1008.85
2018-05-29T01:10:03.932Z,1008.92
2018-05-29T01:10:30.073Z,1008.89
2018-05-29T01:10:56.214Z,1008.91
2018-05-29T01:11:22.357Z,1008.9
2018-05-29T01:11:48.503Z,1008.94
2018-05-29T01:12:14.641Z,1008.93
2018-05-29T01:12:40.836Z,1008.95
2018-05-29T01:13:06.972Z,1008.92
2018-05-29T01:13:33.113Z,1008.9
2018-05-29T01:13:59.258Z,1008.89
2018-05-29T01:14:25.395Z,1008.91
2018-05-29T01:14:51.560Z,1008.91
2018-05-29T01:15:17.752Z,1008.9
2018-05-29T01:15:43.917Z,1008.91
2018-05-29T01:16:10.064Z,1008.91
2018-05-29T01:16:36.203Z,1008.92
2018-05-29T01:17:02.348Z,1008.9
2018-05-29T01:17:28.516Z,1008.86
2018-05-29T01:17:54.659Z,1008.85
2018-05-29T01:18:20.794Z,1008.91
2018-05-29T01:18:46.940Z,1008.89
2018-05-29T01:19:13.075Z,1008.85
2018-05-29T01:19:39.254Z,1008.9
2018-05-29T01:20:05.413Z,1008.88
2018-05-29T01:20:31.565Z,1008.89
2018-05-29T01:20:57.711Z,1008.87
2018-05-29T01:21:23.854Z,1008.89
2018-05-29T01:21:49.991Z,1008.89
2018-05-29T01:22:16.139Z,1008.87
2018-05-29T01:22:42.308Z,1008.87
2018-05-29T01:23:08.451Z,1008.88
2018-05-29T01:23:34.619Z,1008.86
2018-05-29T01:24:00.783Z,1008.88
2018-05-29T01:24:26.925Z,1008.84
2018-05-29T01:24:53.083Z,1008.82
2018-05-29T01:25:19.228Z,1008.85
2018-05-29T01:25:45.364Z,1008.88
2018-05-29T01:26:11.516Z,1008.82
2018-05-29T01:26:37.651Z,1008.85
2018-05-29T01:27:03.797Z,1008.86
2018-05-29T01:27:29.937Z,1008.86
2018-05-29T01:27:56.102Z,1008.88
2018-05-29T01:28:22.268Z,1008.86
2018-05-29T01:28:48.409Z,1008.85
2018-05-29T01:29:14.546Z,1008.86
2018-05-29T01:29:40.695Z,1008.88
2018-05-29T01:30:06.828Z,1008.85
2018-05-29T01:30:32.975Z,1008.84
2018-05-29T01:30:59.141Z,1008.83
2018-05-29T01:31:25.280Z,1008.84
2018-05-29T01:31:51.435Z,1008.83
2018-05-29T01:32:17.569Z,1008.84
2018-05-29T01:32:43.739Z,1008.83
2018-05-29T01:33:09.881Z,1008.85
2018-05-29T01:33:36.051Z,1008.83
2018-05-29T01:34:02.181Z,1008.83
2018-05-29T01:34:28.324Z,1008.84
2018-05-29T01:34:54.463Z,1008.83
2018-05-29T01:35:20.631Z,1008.8
2018-05-29T01:35:46.778Z,1008.81
2018-05-29T01:36:12.943Z,1008.79
2018-05-29T01:36:39.094Z,1008.8
2018-05-29T01:37:05.266Z,1008.77
2018-05-29T01:37:31.443Z,1008.76
2018-05-29T01:37:57.564Z,1008.78
2018-05-29T01:38:23.704Z,1008.77
2018-05-29T01:38:49.877Z,1008.72
2018-05-29T01:39:16.068Z,1008.76
2018-05-29T01:39:42.205Z,1008.72
2018-05-29T01:40:08.366Z,1008.73
2018-05-29T01:40:34.513Z,1008.72
2018-05-29T01:41:00.672Z,1008.75
2018-05-29T01:41:26.810Z,1008.72
2018-05-29T01:41:53.019Z,1008.72
2018-05-29T01:42:19.160Z,1008.73
2018-05-29T01:42:45.302Z,1008.7
2018-05-29T01:43:11.442Z,1008.72
2018-05-29T01:43:37.584Z,1008.67
2018-05-29T01:44:03.730Z,1008.75
2018-05-29T01:44:29.871Z,1008.71
2018-05-29T01:44:56.013Z,1008.72
2018-05-29T01:45:22.190Z,1008.72
2018-05-29T01:45:48.294Z,1008.66
2018-05-29T01:46:14.440Z,1008.7
2018-05-29T01:46:40.573Z,1008.69
2018-05-29T01:47:06.719Z,1008.68
2018-05-29T01:47:32.872Z,1008.71
2018-05-29T01:47:59.038Z,1008.69
2018-05-29T01:48:25.170Z,1008.7
2018-05-29T01:48:51.336Z,1008.69
2018-05-29T01:49:17.521Z,1008.7
2018-05-29T01:49:43.666Z,1008.71
2018-05-29T01:50:09.805Z,1008.72
2018-05-29T01:50:35.957Z,1008.72
2018-05-29T01:51:02.093Z,1008.7
2018-05-29T01:51:28.237Z,1008.72
2018-05-29T01:51:54.380Z,1008.68
2018-05-29T01:52:20.522Z,1008.69
2018-05-29T01:52:46.667Z,1008.68
2018-05-29T01:53:12.804Z,1008.66
2018-05-29T01:53:38.993Z,1008.65
2018-05-29T01:54:05.091Z,1008.7
2018-05-29T01:54:31.279Z,1008.65
2018-05-29T01:54:57.425Z,1008.7
2018-05-29T01:55:23.568Z,1008.68
2018-05-29T01:55:49.732Z,1008.69
2018-05-29T01:56:15.874Z,1008.69
2018-05-29T01:56:42.016Z,1008.66
2018-05-29T01:57:08.156Z,1008.69
2018-05-29T01:57:34.304Z,1008.66
2018-05-29T01:58:00.434Z,1008.67
2018-05-29T01:58:26.589Z,1008.65
2018-05-29T01:58:52.726Z,1008.68
2018-05-29T01:59:18.901Z,1008.66
2018-05-29T01:59:45.037Z,1008.67
2018-05-29T02:00:11.177Z,1008.66
2018-05-29T02:00:37.313Z,1008.63
2018-05-29T02:01:03.458Z,1008.64
2018-05-29T02:01:29.624Z,1008.61
2018-05-29T02:01:55.788Z,1008.61
2018-05-29T02:02:21.958Z,1008.65
2018-05-29T02:02:48.100Z,1008.65
2018-05-29T02:03:14.253Z,1008.62
2018-05-29T02:03:40.388Z,1008.58
2018-05-29T02:04:06.553Z,1008.56
2018-05-29T02:04:32.807Z,1008.55
2018-05-29T02:04:58.855Z,1008.6
2018-05-29T02:05:25.023Z,1008.58
2018-05-29T02:05:51.162Z,1008.59
2018-05-29T02:06:17.359Z,1008.57
2018-05-29T02:06:43.499Z,1008.62
2018-05-29T02:07:09.638Z,1008.57
2018-05-29T02:07:35.807Z,1008.56
2018-05-29T02:08:01.950Z,1008.56
2018-05-29T02:08:28.093Z,1008.54
2018-05-29T02:08:54.236Z,1008.58
2018-05-29T02:09:20.372Z,1008.59
2018-05-29T02:09:46.537Z,1008.58
2018-05-29T02:10:12.780Z,1008.58
2018-05-29T02:10:38.938Z,1008.56
2018-05-29T02:11:05.075Z,1008.54
2018-05-29T02:11:31.211Z,1008.57
2018-05-29T02:11:57.359Z,1008.53
2018-05-29T02:12:23.503Z,1008.52
2018-05-29T02:12:49.672Z,1008.55
2018-05-29T02:13:15.830Z,1008.51
2018-05-29T02:13:41.985Z,1008.56
2018-05-29T02:14:08.119Z,1008.56
2018-05-29T02:14:34.302Z,1008.56
2018-05-29T02:15:00.453Z,1008.52
2018-05-29T02:15:26.620Z,1008.56
2018-05-29T02:15:52.777Z,1008.53
2018-05-29T02:16:18.933Z,1008.52
2018-05-29T02:16:45.086Z,1008.53
2018-05-29T02:17:11.226Z,1008.52
2018-05-29T02:17:37.365Z,1008.52
2018-05-29T02:18:03.528Z,1008.5
2018-05-29T02:18:29.707Z,1008.53
2018-05-29T02:18:55.912Z,1008.54
2018-05-29T02:19:22.061Z,1008.53
2018-05-29T02:19:48.202Z,1008.53
2018-05-29T02:20:14.342Z,1008.53
2018-05-29T02:20:40.488Z,1008.49
2018-05-29T02:21:06.634Z,1008.5
2018-05-29T02:21:32.774Z,1008.52
2018-05-29T02:21:58.943Z,1008.52
2018-05-29T02:22:25.091Z,1008.51
2018-05-29T02:22:51.234Z,1008.55
2018-05-29T02:23:17.417Z,1008.55
2018-05-29T02:23:43.586Z,1008.54
2018-05-29T02:24:09.743Z,1008.53
2018-05-29T02:24:35.888Z,1008.55
2018-05-29T02:25:02.074Z,1008.51
2018-05-29T02:25:28.215Z,1008.5
2018-05-29T02:25:54.363Z,1008.53
2018-05-29T02:26:20.507Z,1008.54
2018-05-29T02:26:46.666Z,1008.51
2018-05-29T02:27:12.901Z,1008.51
2018-05-29T02:27:39.006Z,1008.48
2018-05-29T02:28:05.173Z,1008.51
2018-05-29T02:28:31.333Z,1008.49
2018-05-29T02:28:57.484Z,1008.48
2018-05-29T02:29:23.610Z,1008.53
2018-05-29T02:29:49.757Z,1008.5
2018-05-29T02:30:15.918Z,1008.49
2018-05-29T02:30:42.092Z,1008.53
2018-05-29T02:31:08.265Z,1008.5
2018-05-29T02:31:34.406Z,1008.51
2018-05-29T02:32:00.638Z,1008.52
2018-05-29T02:32:26.793Z,1008.49
2018-05-29T02:32:52.986Z,1008.49
2018-05-29T02:33:19.153Z,1008.5
2018-05-29T02:33:45.316Z,1008.51
2018-05-29T02:34:11.457Z,1008.48
2018-05-29T02:34:37.595Z,1008.48
2018-05-29T02:35:03.759Z,1008.49
2018-05-29T02:35:29.958Z,1008.48
2018-05-29T02:35:56.084Z,1008.5
2018-05-29T02:36:22.277Z,1008.5
2018-05-29T02:36:48.442Z,1008.45
2018-05-29T02:37:14.603Z,1008.46
2018-05-29T02:37:40.770Z,1008.47
2018-05-29T02:38:06.939Z,1008.45
2018-05-29T02:38:33.107Z,1008.51
2018-05-29T02:38:59.301Z,1008.48
2018-05-29T02:39:25.527Z,1008.44
2018-05-29T02:39:51.626Z,1008.48
2018-05-29T02:40:17.776Z,1008.44
2018-05-29T02:40:43.993Z,1008.44
2018-05-29T02:41:10.202Z,1008.47
2018-05-29T02:41:36.348Z,1008.4
2018-05-29T02:42:02.493Z,1008.42
2018-05-29T02:42:28.657Z,1008.47
2018-05-29T02:42:54.800Z,1008.42
2018-05-29T02:43:20.958Z,1008.44
2018-05-29T02:43:47.137Z,1008.42
2018-05-29T02:44:13.341Z,1008.41
2018-05-29T02:44:39.483Z,1008.4
2018-05-29T02:45:05.668Z,1008.42
2018-05-29T02:45:31.833Z,1008.37
2018-05-29T02:45:57.994Z,1008.37
2018-05-29T02:46:24.193Z,1008.38
2018-05-29T02:46:50.385Z,1008.36
2018-05-29T02:47:16.536Z,1008.39
2018-05-29T02:47:42.704Z,1008.38
2018-05-29T02:48:08.900Z,1008.43
2018-05-29T02:48:35.079Z,1008.38
2018-05-29T02:49:01.298Z,1008.4
2018-05-29T02:49:27.443Z,1008.36
2018-05-29T02:49:53.582Z,1008.38
2018-05-29T02:50:19.720Z,1008.36
2018-05-29T02:50:45.869Z,1008.36
2018-05-29T02:51:12.022Z,1008.4
2018-05-29T02:51:38.209Z,1008.39
2018-05-29T02:52:04.369Z,1008.36
2018-05-29T02:52:30.537Z,1008.39
2018-05-29T02:52:56.706Z,1008.34
2018-05-29T02:53:22.848Z,1008.4
2018-05-29T02:53:48.990Z,1008.37
2018-05-29T02:54:15.148Z,1008.42
2018-05-29T02:54:41.287Z,1008.43
2018-05-29T02:55:07.432Z,1008.4
2018-05-29T02:55:33.654Z,1008.39
2018-05-29T02:55:59.731Z,1008.36
2018-05-29T02:56:25.875Z,1008.37
2018-05-29T02:56:52.010Z,1008.37
2018-05-29T02:57:18.158Z,1008.33
2018-05-29T02:57:44.286Z,1008.3
2018-05-29T02:58:10.469Z,1008.32
2018-05-29T02:58:36.595Z,1008.29
2018-05-29T02:59:02.748Z,1008.32
2018-05-29T02:59:28.889Z,1008.29
2018-05-29T02:59:55.069Z,1008.26
2018-05-29T03:00:21.228Z,1008.28
2018-05-29T03:00:47.414Z,1008.29
2018-05-29T03:01:13.733Z,1008.29
2018-05-29T03:01:39.974Z,1008.29
2018-05-29T03:02:06.258Z,1008.31
2018-05-29T03:02:32.659Z,1008.28
2018-05-29T03:02:59.047Z,1008.31
2018-05-29T03:03:25.338Z,1008.28
2018-05-29T03:03:51.899Z,1008.29
2018-05-29T03:04:18.189Z,1008.29
2018-05-29T03:04:44.473Z,1008.3
2018-05-29T03:05:10.730Z,1008.33
2018-05-29T03:05:36.925Z,1008.34
2018-05-29T03:06:03.269Z,1008.35
2018-05-29T03:06:29.410Z,1008.34
2018-05-29T03:06:55.570Z,1008.33
2018-05-29T03:07:21.695Z,1008.33
2018-05-29T03:07:47.884Z,1008.39
2018-05-29T03:08:14.024Z,1008.37
2018-05-29T03:08:40.161Z,1008.38
2018-05-29T03:09:06.310Z,1008.33
2018-05-29T03:09:32.447Z,1008.37
2018-05-29T03:09:58.589Z,1008.37
2018-05-29T03:10:24.748Z,1008.35
2018-05-29T03:10:50.895Z,1008.31
2018-05-29T03:11:17.034Z,1008.32
2018-05-29T03:11:43.174Z,1008.31
2018-05-29T03:12:09.312Z,1008.32
2018-05-29T03:12:35.473Z,1008.38
2018-05-29T03:13:01.666Z,1008.33
2018-05-29T03:13:27.845Z,1008.38
2018-05-29T03:13:53.980Z,1008.35
2018-05-29T03:14:20.136Z,1008.32
2018-05-29T03:14:46.297Z,1008.3
2018-05-29T03:15:12.503Z,1008.34
2018-05-29T03:15:38.659Z,1008.3
2018-05-29T03:16:04.808Z,1008.33
2018-05-29T03:16:30.945Z,1008.3
2018-05-29T03:16:57.095Z,1008.33
2018-05-29T03:17:23.229Z,1008.29
2018-05-29T03:17:49.394Z,1008.31
2018-05-29T03:18:15.573Z,1008.31
2018-05-29T03:18:41.733Z,1008.35
2018-05-29T03:19:07.871Z,1008.34
2018-05-29T03:19:34.007Z,1008.33
2018-05-29T03:20:00.150Z,1008.3
2018-05-29T03:20:26.308Z,1008.34
2018-05-29T03:20:52.468Z,1008.33
2018-05-29T03:21:18.728Z,1008.28
2018-05-29T03:21:44.801Z,1008.29
2018-05-29T03:22:10.947Z,1008.29
2018-05-29T03:22:37.085Z,1008.31
2018-05-29T03:23:03.252Z,1008.3
2018-05-29T03:23:29.395Z,1008.31
2018-05-29T03:23:55.537Z,1008.3
2018-05-29T03:24:21.711Z,1008.29
2018-05-29T03:24:47.865Z,1008.29
2018-05-29T03:25:14.013Z,1008.29
2018-05-29T03:25:40.176Z,1008.27
2018-05-29T03:26:06.336Z,1008.27
2018-05-29T03:26:32.510Z,1008.24
2018-05-29T03:26:58.640Z,1008.26
2018-05-29T03:27:24.832Z,1008.23
2018-05-29T03:27:50.965Z,1008.21
2018-05-29T03:28:17.160Z,1008.21
2018-05-29T03:28:43.323Z,1008.22
2018-05-29T03:29:09.467Z,1008.23
2018-05-29T03:29:35.631Z,1008.19
2018-05-29T03:30:01.783Z,1008.21
2018-05-29T03:30:27.943Z,1008.19
2018-05-29T03:30:54.138Z,1008.23
2018-05-29T03:31:20.320Z,1008.2
2018-05-29T03:31:46.472Z,1008.18
2018-05-29T03:32:12.608Z,1008.18
2018-05-29T03:32:38.768Z,1008.2
2018-05-29T03:33:04.913Z,1008.15
2018-05-29T03:33:31.061Z,1008.15
2018-05-29T03:33:57.191Z,1008.15
2018-05-29T03:34:23.441Z,1008.12
2018-05-29T03:34:49.582Z,1008.18
2018-05-29T03:35:15.718Z,1008.17
2018-05-29T03:35:41.864Z,1008.16
2018-05-29T03:36:08.029Z,1008.13
2018-05-29T03:36:34.167Z,1008.13
2018-05-29T03:37:00.312Z,1008.14
2018-05-29T03:37:26.454Z,1008.15
2018-05-29T03:37:52.638Z,1008.14
2018-05-29T03:38:18.782Z,1008.14
2018-05-29T03:38:44.946Z,1008.14
2018-05-29T03:39:11.105Z,1008.12
2018-05-29T03:39:37.291Z,1008.19
2018-05-29T03:40:03.422Z,1008.17
2018-05-29T03:40:29.626Z,1008.21
2018-05-29T03:40:55.722Z,1008.21
2018-05-29T03:41:21.874Z,1008.21
2018-05-29T03:41:48.016Z,1008.2
2018-05-29T03:42:14.173Z,1008.19
2018-05-29T03:42:40.320Z,1008.19
2018-05-29T03:43:06.487Z,1008.22
2018-05-29T03:43:32.644Z,1008.2
2018-05-29T03:43:58.775Z,1008.2
2018-05-29T03:44:24.924Z,1008.18
2018-05-29T03:44:51.062Z,1008.18
2018-05-29T03:45:17.202Z,1008.2
2018-05-29T03:45:43.341Z,1008.19
2018-05-29T03:46:09.508Z,1008.17
2018-05-29T03:46:35.674Z,1008.2
2018-05-29T03:47:01.872Z,1008.17
2018-05-29T03:47:28.028Z,1008.17
2018-05-29T03:47:54.186Z,1008.15
2018-05-29T03:48:20.366Z,1008.17
2018-05-29T03:48:46.511Z,1008.14
2018-05-29T03:49:12.659Z,1008.14
2018-05-29T03:49:38.887Z,1008.17
2018-05-29T03:50:05.012Z,1008.15
2018-05-29T03:50:31.173Z,1008.15
2018-05-29T03:50:57.310Z,1008.13
2018-05-29T03:51:23.558Z,1008.18
2018-05-29T03:51:49.644Z,1008.2
2018-05-29T03:52:15.786Z,1008.16
2018-05-29T03:52:42.052Z,1008.18
2018-05-29T03:53:08.234Z,1008.18
2018-05-29T03:53:34.385Z,1008.19
2018-05-29T03:54:00.809Z,1008.19
2018-05-29T03:54:26.985Z,1008.17
2018-05-29T03:54:53.744Z,1008.18
2018-05-29T03:55:19.924Z,1008.18
2018-05-29T03:55:46.112Z,1008.17
2018-05-29T03:56:12.278Z,1008.19
2018-05-29T03:56:38.572Z,1008.22
2018-05-29T03:57:04.771Z,1008.2
2018-05-29T03:57:30.908Z,1008.22
2018-05-29T03:57:57.054Z,1008.22
2018-05-29T03:58:23.205Z,1008.22
2018-05-29T03:58:49.387Z,1008.24
2018-05-29T03:59:15.507Z,1008.22
2018-05-29T03:59:41.676Z,1008.25
2018-05-29T04:00:07.833Z,1008.24
2018-05-29T04:00:34.007Z,1008.27
2018-05-29T04:01:00.163Z,1008.27
2018-05-29T04:01:26.327Z,1008.3
2018-05-29T04:01:52.478Z,1008.28
2018-05-29T04:02:18.666Z,1008.27
2018-05-29T04:02:44.837Z,1008.27
2018-05-29T04:03:11.041Z,1008.29
2018-05-29T04:03:37.207Z,1008.25
2018-05-29T04:04:03.347Z,1008.29
2018-05-29T04:04:29.486Z,1008.27
2018-05-29T04:04:55.624Z,1008.3
2018-05-29T04:05:21.801Z,1008.27
2018-05-29T04:05:47.929Z,1008.29
2018-05-29T04:06:14.073Z,1008.27
2018-05-29T04:06:40.239Z,1008.24
2018-05-29T04:07:06.403Z,1008.24
2018-05-29T04:07:32.540Z,1008.22
2018-05-29T04:07:58.687Z,1008.26
2018-05-29T04:08:24.855Z,1008.24
2018-05-29T04:08:51.024Z,1008.25
2018-05-29T04:09:17.190Z,1008.24
2018-05-29T04:09:43.362Z,1008.25
2018-05-29T04:10:09.514Z,1008.19
2018-05-29T04:10:35.664Z,1008.2
2018-05-29T04:11:01.803Z,1008.2
2018-05-29T04:11:27.949Z,1008.2
2018-05-29T04:11:54.128Z,1008.21
2018-05-29T04:12:20.297Z,1008.24
2018-05-29T04:12:46.437Z,1008.22
2018-05-29T04:13:12.657Z,1008.24
2018-05-29T04:13:38.791Z,1008.23
2018-05-29T04:14:05.006Z,1008.25
2018-05-29T04:14:31.190Z,1008.26
2018-05-29T04:14:57.324Z,1008.23
2018-05-29T04:15:23.473Z,1008.26
2018-05-29T04:15:49.624Z,1008.24
2018-05-29T04:16:15.766Z,1008.26
2018-05-29T04:16:41.904Z,1008.28
2018-05-29T04:17:08.055Z,1008.25
2018-05-29T04:17:34.189Z,1008.27
2018-05-29T04:18:00.335Z,1008.26
2018-05-29T04:18:26.502Z,1008.29
2018-05-29T04:18:52.664Z,1008.28
2018-05-29T04:19:18.828Z,1008.28
2018-05-29T04:19:44.976Z,1008.25
2018-05-29T04:20:11.117Z,1008.23
2018-05-29T04:20:37.262Z,1008.25
2018-05-29T04:21:03.423Z,1008.27
2018-05-29T04:21:29.567Z,1008.27
2018-05-29T04:21:55.716Z,1008.26
2018-05-29T04:22:21.860Z,1008.24
2018-05-29T04:22:48.024Z,1008.26
2018-05-29T04:23:14.192Z,1008.2
2018-05-29T04:23:40.361Z,1008.24
2018-05-29T04:24:06.504Z,1008.22
2018-05-29T04:24:32.678Z,1008.25
2018-05-29T04:24:58.809Z,1008.23
2018-05-29T04:25:24.950Z,1008.23
2018-05-29T04:25:51.094Z,1008.24
2018-05-29T04:26:17.280Z,1008.23
2018-05-29T04:26:43.458Z,1008.24
2018-05-29T04:27:09.628Z,1008.2
2018-05-29T04:27:35.797Z,1008.2
2018-05-29T04:28:01.939Z,1008.2
2018-05-29T04:28:28.084Z,1008.21
2018-05-29T04:28:54.224Z,1008.16
2018-05-29T04:29:20.368Z,1008.22
2018-05-29T04:29:46.504Z,1008.22
2018-05-29T04:30:12.670Z,1008.25
2018-05-29T04:30:38.821Z,1008.27
2018-05-29T04:31:04.962Z,1008.26
2018-05-29T04:31:31.103Z,1008.25
2018-05-29T04:31:57.244Z,1008.25
2018-05-29T04:32:23.385Z,1008.23
2018-05-29T04:32:49.537Z,1008.28
2018-05-29T04:33:15.699Z,1008.27
2018-05-29T04:33:41.840Z,1008.24
2018-05-29T04:34:07.987Z,1008.24
2018-05-29T04:34:34.154Z,1008.28
2018-05-29T04:35:00.291Z,1008.27
2018-05-29T04:35:26.440Z,1008.24
2018-05-29T04:35:52.577Z,1008.24
2018-05-29T04:36:18.719Z,1008.25
2018-05-29T04:36:44.861Z,1008.26
2018-05-29T04:37:11.011Z,1008.3
2018-05-29T04:37:37.219Z,1008.26
2018-05-29T04:38:03.357Z,1008.25
2018-05-29T04:38:29.530Z,1008.26
2018-05-29T04:38:55.667Z,1008.29
2018-05-29T04:39:21.813Z,1008.3
2018-05-29T04:39:47.987Z,1008.29
2018-05-29T04:40:14.125Z,1008.28
2018-05-29T04:40:40.289Z,1008.24
2018-05-29T04:41:06.432Z,1008.23
2018-05-29T04:41:32.572Z,1008.28
2018-05-29T04:41:58.763Z,1008.27
2018-05-29T04:42:24.897Z,1008.28
2018-05-29T04:42:51.061Z,1008.3
2018-05-29T04:43:17.203Z,1008.31
2018-05-29T04:43:43.398Z,1008.34
2018-05-29T04:44:09.494Z,1008.36
2018-05-29T04:44:35.656Z,1008.38
2018-05-29T04:45:01.803Z,1008.35
2018-05-29T04:45:27.941Z,1008.37
2018-05-29T04:45:54.081Z,1008.36
2018-05-29T04:46:20.227Z,1008.38
2018-05-29T04:46:46.365Z,1008.41
2018-05-29T04:47:12.561Z,1008.36
2018-05-29T04:47:38.701Z,1008.34
2018-05-29T04:48:04.872Z,1008.38
2018-05-29T04:48:31.015Z,1008.42
2018-05-29T04:48:57.157Z,1008.33
2018-05-29T04:49:23.350Z,1008.32
2018-05-29T04:49:49.495Z,1008.31
2018-05-29T04:50:15.636Z,1008.31
2018-05-29T04:50:41.819Z,1008.32
2018-05-29T04:51:07.950Z,1008.35
2018-05-29T04:51:34.130Z,1008.33
2018-05-29T04:52:00.279Z,1008.33
2018-05-29T04:52:26.438Z,1008.35
2018-05-29T04:52:53.292Z,1008.31
2018-05-29T04:53:19.361Z,1008.31
2018-05-29T04:53:45.543Z,1008.32
2018-05-29T04:54:11.825Z,1008.31
2018-05-29T04:54:37.903Z,1008.29
2018-05-29T04:55:04.041Z,1008.27
2018-05-29T04:55:30.185Z,1008.28
2018-05-29T04:55:56.316Z,1008.24
2018-05-29T04:56:22.464Z,1008.24
2018-05-29T04:56:48.624Z,1008.23
2018-05-29T04:57:14.790Z,1008.24
2018-05-29T04:57:40.928Z,1008.23
2018-05-29T04:58:07.066Z,1008.21
2018-05-29T04:58:33.211Z,1008.18
2018-05-29T04:58:59.360Z,1008.15
2018-05-29T04:59:25.535Z,1008.21
2018-05-29T04:59:51.676Z,1008.17
2018-05-29T05:00:17.822Z,1008.19
2018-05-29T05:00:43.994Z,1008.17
2018-05-29T05:01:10.129Z,1008.19
2018-05-29T05:01:36.278Z,1008.2
2018-05-29T05:02:02.418Z,1008.18
2018-05-29T05:02:28.587Z,1008.26
2018-05-29T05:02:54.724Z,1008.22
2018-05-29T05:03:20.874Z,1008.24
2018-05-29T05:03:47.033Z,1008.21
2018-05-29T05:04:13.180Z,1008.16
2018-05-29T05:04:39.320Z,1008.15
2018-05-29T05:05:05.484Z,1008.23
2018-05-29T05:05:31.629Z,1008.17
2018-05-29T05:05:57.762Z,1008.2
2018-05-29T05:06:23.932Z,1008.21
2018-05-29T05:06:50.107Z,1008.17
2018-05-29T05:07:16.246Z,1008.21
2018-05-29T05:07:42.433Z,1008.27
2018-05-29T05:08:08.577Z,1008.26
2018-05-29T05:08:34.749Z,1008.26
2018-05-29T05:09:00.950Z,1008.21
2018-05-29T05:09:27.057Z,1008.24
2018-05-29T05:09:53.237Z,1008.24
2018-05-29T05:10:19.340Z,1008.25
2018-05-29T05:10:45.479Z,1008.22
2018-05-29T05:11:11.619Z,1008.27
2018-05-29T05:11:37.758Z,1008.25
2018-05-29T05:12:03.900Z,1008.24
2018-05-29T05:12:30.041Z,1008.25
2018-05-29T05:12:56.187Z,1008.27
2018-05-29T05:13:22.322Z,1008.25
2018-05-29T05:13:48.465Z,1008.24
2018-05-29T05:14:14.632Z,1008.26
2018-05-29T05:14:40.776Z,1008.24
2018-05-29T05:15:06.916Z,1008.22
2018-05-29T05:15:33.051Z,1008.23
2018-05-29T05:15:59.198Z,1008.21
2018-05-29T05:16:25.338Z,1008.22
2018-05-29T05:16:51.476Z,1008.21
2018-05-29T05:17:17.622Z,1008.18
2018-05-29T05:17:43.760Z,1008.19